sensor_id;sensor_type;location;lat;lon;timestamp;P1;durP1;ratioP1;P2;durP2;ratioP2
9661;SDS011;24982;52.344;12.990;2023-03-23T00:02:00;2.47;;;1.65;;
9661;SDS011;24982;52.344;12.990;2023-03-23T00:05:04;4.32;;;1.80;;
9661;SDS011;24982;52.344;12.990;2023-03-23T00:08:07;1.92;;;1.55;;
9661;SDS011;24982;52.344;12.990;2023-03-23T00:11:12;2.53;;;1.85;;
9661;SDS011;24982;52.344;12.990;2023-03-23T00:14:16;2.00;;;1.70;;
9661;SDS011;24982;52.344;12.990;2023-03-23T00:17:22;1.70;;;1.60;;
9661;SDS011;24982;52.344;12.990;2023-03-23T00:20:27;4.03;;;1.60;;
9661;SDS011;24982;52.344;12.990;2023-03-23T00:23:29;1.70;;;1.60;;
9661;SDS011;24982;52.344;12.990;2023-03-23T00:26:31;1.85;;;1.67;;
9661;SDS011;24982;52.344;12.990;2023-03-23T00:29:34;3.38;;;1.70;;
9661;SDS011;24982;52.344;12.990;2023-03-23T00:32:37;1.73;;;1.63;;
9661;SDS011;24982;52.344;12.990;2023-03-23T00:35:40;1.92;;;1.80;;
9661;SDS011;24982;52.344;12.990;2023-03-23T00:38:44;2.75;;;1.90;;
9661;SDS011;24982;52.344;12.990;2023-03-23T00:41:47;2.30;;;1.52;;
9661;SDS011;24982;52.344;12.990;2023-03-23T00:44:49;3.13;;;1.60;;
9661;SDS011;24982;52.344;12.990;2023-03-23T00:47:54;1.92;;;1.70;;
9661;SDS011;24982;52.344;12.990;2023-03-23T00:50:58;2.17;;;1.75;;
9661;SDS011;24982;52.344;12.990;2023-03-23T00:54:01;3.03;;;1.77;;
9661;SDS011;24982;52.344;12.990;2023-03-23T00:57:03;3.75;;;2.08;;
9661;SDS011;24982;52.344;12.990;2023-03-23T01:00:07;3.28;;;2.10;;
9661;SDS011;24982;52.344;12.990;2023-03-23T01:03:11;2.55;;;1.90;;
9661;SDS011;24982;52.344;12.990;2023-03-23T01:06:19;4.40;;;2.03;;
9661;SDS011;24982;52.344;12.990;2023-03-23T01:09:21;4.80;;;1.90;;
9661;SDS011;24982;52.344;12.990;2023-03-23T01:12:23;2.20;;;1.90;;
9661;SDS011;24982;52.344;12.990;2023-03-23T01:15:26;3.17;;;1.85;;
9661;SDS011;24982;52.344;12.990;2023-03-23T01:18:29;3.00;;;2.22;;
9661;SDS011;24982;52.344;12.990;2023-03-23T01:21:33;2.15;;;2.03;;
9661;SDS011;24982;52.344;12.990;2023-03-23T01:24:35;2.03;;;1.92;;
9661;SDS011;24982;52.344;12.990;2023-03-23T01:27:38;2.65;;;2.33;;
9661;SDS011;24982;52.344;12.990;2023-03-23T01:30:40;3.83;;;2.10;;
9661;SDS011;24982;52.344;12.990;2023-03-23T01:33:43;2.13;;;2.03;;
9661;SDS011;24982;52.344;12.990;2023-03-23T01:36:47;2.50;;;2.20;;
9661;SDS011;24982;52.344;12.990;2023-03-23T01:39:49;2.65;;;2.05;;
9661;SDS011;24982;52.344;12.990;2023-03-23T01:42:51;2.25;;;1.92;;
9661;SDS011;24982;52.344;12.990;2023-03-23T01:45:54;3.05;;;2.40;;
9661;SDS011;24982;52.344;12.990;2023-03-23T01:48:56;3.90;;;2.25;;
9661;SDS011;24982;52.344;12.990;2023-03-23T01:52:08;2.58;;;2.38;;
9661;SDS011;24982;52.344;12.990;2023-03-23T01:55:18;2.47;;;2.28;;
9661;SDS011;24982;52.344;12.990;2023-03-23T01:58:24;2.22;;;2.13;;
9661;SDS011;24982;52.344;12.990;2023-03-23T02:01:29;2.80;;;2.53;;
9661;SDS011;24982;52.344;12.990;2023-03-23T02:04:31;3.00;;;2.55;;
9661;SDS011;24982;52.344;12.990;2023-03-23T02:07:36;2.40;;;2.20;;
9661;SDS011;24982;52.344;12.990;2023-03-23T02:10:39;2.33;;;2.20;;
9661;SDS011;24982;52.344;12.990;2023-03-23T02:13:42;2.72;;;2.08;;
9661;SDS011;24982;52.344;12.990;2023-03-23T02:16:46;2.17;;;1.90;;
9661;SDS011;24982;52.344;12.990;2023-03-23T02:20:01;2.40;;;2.22;;
9661;SDS011;24982;52.344;12.990;2023-03-23T02:23:25;3.33;;;2.22;;
9661;SDS011;24982;52.344;12.990;2023-03-23T02:26:44;2.60;;;2.30;;
9661;SDS011;24982;52.344;12.990;2023-03-23T02:30:01;2.35;;;2.15;;
9661;SDS011;24982;52.344;12.990;2023-03-23T02:33:29;3.58;;;2.08;;
9661;SDS011;24982;52.344;12.990;2023-03-23T02:36:39;3.90;;;1.92;;
9661;SDS011;24982;52.344;12.990;2023-03-23T02:39:47;2.13;;;1.98;;
9661;SDS011;24982;52.344;12.990;2023-03-23T02:42:53;2.17;;;2.03;;
9661;SDS011;24982;52.344;12.990;2023-03-23T02:45:57;2.28;;;1.80;;
9661;SDS011;24982;52.344;12.990;2023-03-23T02:49:02;3.35;;;1.80;;
9661;SDS011;24982;52.344;12.990;2023-03-23T02:52:07;2.85;;;1.80;;
9661;SDS011;24982;52.344;12.990;2023-03-23T02:55:12;2.00;;;1.73;;
9661;SDS011;24982;52.344;12.990;2023-03-23T02:58:16;1.88;;;1.60;;
9661;SDS011;24982;52.344;12.990;2023-03-23T03:04:58;2.90;;;1.60;;
9661;SDS011;24982;52.344;12.990;2023-03-23T03:08:13;1.63;;;1.50;;
9661;SDS011;24982;52.344;12.990;2023-03-23T03:11:21;1.35;;;1.35;;
9661;SDS011;24982;52.344;12.990;2023-03-23T03:14:26;1.80;;;1.70;;
9661;SDS011;24982;52.344;12.990;2023-03-23T03:17:34;1.58;;;1.48;;
9661;SDS011;24982;52.344;12.990;2023-03-23T03:20:43;2.33;;;1.35;;
9661;SDS011;24982;52.344;12.990;2023-03-23T03:23:49;2.90;;;1.58;;
9661;SDS011;24982;52.344;12.990;2023-03-23T03:26:52;1.95;;;1.40;;
9661;SDS011;24982;52.344;12.990;2023-03-23T03:30:25;1.67;;;1.30;;
9661;SDS011;24982;52.344;12.990;2023-03-23T03:33:31;2.25;;;1.58;;
9661;SDS011;24982;52.344;12.990;2023-03-23T03:36:36;2.20;;;1.50;;
9661;SDS011;24982;52.344;12.990;2023-03-23T03:39:42;1.63;;;1.40;;
9661;SDS011;24982;52.344;12.990;2023-03-23T03:42:44;1.40;;;1.30;;
9661;SDS011;24982;52.344;12.990;2023-03-23T03:45:48;1.38;;;1.33;;
9661;SDS011;24982;52.344;12.990;2023-03-23T03:48:50;3.35;;;1.40;;
9661;SDS011;24982;52.344;12.990;2023-03-23T03:51:57;1.42;;;1.30;;
9661;SDS011;24982;52.344;12.990;2023-03-23T03:55:09;3.15;;;1.73;;
9661;SDS011;24982;52.344;12.990;2023-03-23T03:58:14;1.30;;;1.30;;
9661;SDS011;24982;52.344;12.990;2023-03-23T04:01:39;1.67;;;1.50;;
9661;SDS011;24982;52.344;12.990;2023-03-23T04:04:41;1.50;;;1.40;;
9661;SDS011;24982;52.344;12.990;2023-03-23T04:07:45;1.60;;;1.33;;
9661;SDS011;24982;52.344;12.990;2023-03-23T04:10:49;2.22;;;1.52;;
9661;SDS011;24982;52.344;12.990;2023-03-23T04:13:53;2.15;;;1.60;;
9661;SDS011;24982;52.344;12.990;2023-03-23T04:17:00;1.52;;;1.20;;
9661;SDS011;24982;52.344;12.990;2023-03-23T04:20:04;2.33;;;1.60;;
9661;SDS011;24982;52.344;12.990;2023-03-23T04:23:13;1.40;;;1.30;;
9661;SDS011;24982;52.344;12.990;2023-03-23T04:26:20;2.88;;;1.42;;
9661;SDS011;24982;52.344;12.990;2023-03-23T04:29:24;2.85;;;1.40;;
9661;SDS011;24982;52.344;12.990;2023-03-23T04:32:27;3.33;;;1.38;;
9661;SDS011;24982;52.344;12.990;2023-03-23T04:35:30;1.88;;;1.30;;
9661;SDS011;24982;52.344;12.990;2023-03-23T04:38:52;1.63;;;1.33;;
9661;SDS011;24982;52.344;12.990;2023-03-23T04:41:56;1.92;;;1.67;;
9661;SDS011;24982;52.344;12.990;2023-03-23T04:45:20;2.28;;;1.65;;
9661;SDS011;24982;52.344;12.990;2023-03-23T04:48:25;1.65;;;1.55;;
9661;SDS011;24982;52.344;12.990;2023-03-23T04:51:41;1.90;;;1.80;;
9661;SDS011;24982;52.344;12.990;2023-03-23T04:55:03;1.63;;;1.52;;
9661;SDS011;24982;52.344;12.990;2023-03-23T04:58:09;2.03;;;1.60;;
9661;SDS011;24982;52.344;12.990;2023-03-23T05:01:18;1.70;;;1.60;;
9661;SDS011;24982;52.344;12.990;2023-03-23T05:04:34;3.95;;;1.92;;
9661;SDS011;24982;52.344;12.990;2023-03-23T05:07:44;2.17;;;1.95;;
9661;SDS011;24982;52.344;12.990;2023-03-23T05:10:52;4.05;;;1.92;;
9661;SDS011;24982;52.344;12.990;2023-03-23T05:13:56;3.15;;;1.60;;
9661;SDS011;24982;52.344;12.990;2023-03-23T05:16:59;3.83;;;1.85;;
9661;SDS011;24982;52.344;12.990;2023-03-23T05:20:02;2.63;;;1.80;;
9661;SDS011;24982;52.344;12.990;2023-03-23T05:23:17;2.63;;;1.83;;
9661;SDS011;24982;52.344;12.990;2023-03-23T05:26:23;1.60;;;1.50;;
9661;SDS011;24982;52.344;12.990;2023-03-23T05:29:31;2.72;;;1.77;;
9661;SDS011;24982;52.344;12.990;2023-03-23T05:32:34;3.17;;;1.90;;
9661;SDS011;24982;52.344;12.990;2023-03-23T05:35:53;3.95;;;2.10;;
9661;SDS011;24982;52.344;12.990;2023-03-23T05:39:01;3.05;;;1.95;;
9661;SDS011;24982;52.344;12.990;2023-03-23T05:42:22;2.90;;;2.00;;
9661;SDS011;24982;52.344;12.990;2023-03-23T05:45:40;4.93;;;2.10;;
9661;SDS011;24982;52.344;12.990;2023-03-23T05:48:42;6.40;;;2.45;;
9661;SDS011;24982;52.344;12.990;2023-03-23T05:51:49;1.90;;;1.80;;
9661;SDS011;24982;52.344;12.990;2023-03-23T05:54:52;2.35;;;2.15;;
9661;SDS011;24982;52.344;12.990;2023-03-23T05:57:58;3.00;;;2.20;;
9661;SDS011;24982;52.344;12.990;2023-03-23T06:01:06;2.13;;;1.90;;
9661;SDS011;24982;52.344;12.990;2023-03-23T06:04:08;3.70;;;2.42;;
9661;SDS011;24982;52.344;12.990;2023-03-23T06:07:28;3.80;;;2.13;;
9661;SDS011;24982;52.344;12.990;2023-03-23T06:10:36;3.17;;;2.35;;
9661;SDS011;24982;52.344;12.990;2023-03-23T06:13:40;4.47;;;2.30;;
9661;SDS011;24982;52.344;12.990;2023-03-23T06:16:44;3.05;;;2.60;;
9661;SDS011;24982;52.344;12.990;2023-03-23T06:19:48;3.83;;;2.40;;
9661;SDS011;24982;52.344;12.990;2023-03-23T06:22:51;2.65;;;2.20;;
9661;SDS011;24982;52.344;12.990;2023-03-23T06:26:04;4.45;;;2.50;;
9661;SDS011;24982;52.344;12.990;2023-03-23T06:29:09;4.18;;;3.30;;
9661;SDS011;24982;52.344;12.990;2023-03-23T06:32:16;4.60;;;3.65;;
9661;SDS011;24982;52.344;12.990;2023-03-23T06:35:19;4.28;;;3.40;;
9661;SDS011;24982;52.344;12.990;2023-03-23T06:38:21;4.93;;;2.88;;
9661;SDS011;24982;52.344;12.990;2023-03-23T06:41:27;4.13;;;2.60;;
9661;SDS011;24982;52.344;12.990;2023-03-23T06:44:30;5.95;;;2.70;;
9661;SDS011;24982;52.344;12.990;2023-03-23T06:47:33;3.13;;;2.33;;
9661;SDS011;24982;52.344;12.990;2023-03-23T06:50:36;3.13;;;2.83;;
9661;SDS011;24982;52.344;12.990;2023-03-23T06:53:38;3.78;;;2.80;;
9661;SDS011;24982;52.344;12.990;2023-03-23T06:56:43;7.60;;;3.08;;
9661;SDS011;24982;52.344;12.990;2023-03-23T06:59:47;2.90;;;2.70;;
9661;SDS011;24982;52.344;12.990;2023-03-23T07:02:50;4.25;;;2.90;;
9661;SDS011;24982;52.344;12.990;2023-03-23T07:05:53;3.10;;;2.78;;
9661;SDS011;24982;52.344;12.990;2023-03-23T07:09:00;3.03;;;2.80;;
9661;SDS011;24982;52.344;12.990;2023-03-23T07:12:03;4.95;;;2.92;;
9661;SDS011;24982;52.344;12.990;2023-03-23T07:15:15;3.88;;;3.35;;
9661;SDS011;24982;52.344;12.990;2023-03-23T07:18:22;3.53;;;2.70;;
9661;SDS011;24982;52.344;12.990;2023-03-23T07:21:26;3.88;;;2.78;;
9661;SDS011;24982;52.344;12.990;2023-03-23T07:24:29;3.00;;;2.80;;
9661;SDS011;24982;52.344;12.990;2023-03-23T07:27:51;4.95;;;3.40;;
9661;SDS011;24982;52.344;12.990;2023-03-23T07:30:56;7.95;;;3.63;;
9661;SDS011;24982;52.344;12.990;2023-03-23T07:33:58;4.68;;;3.40;;
9661;SDS011;24982;52.344;12.990;2023-03-23T07:37:11;5.47;;;3.40;;
9661;SDS011;24982;52.344;12.990;2023-03-23T07:40:16;6.68;;;4.00;;
9661;SDS011;24982;52.344;12.990;2023-03-23T07:43:22;6.03;;;3.50;;
9661;SDS011;24982;52.344;12.990;2023-03-23T07:46:50;4.53;;;3.22;;
9661;SDS011;24982;52.344;12.990;2023-03-23T07:50:01;4.72;;;3.25;;
9661;SDS011;24982;52.344;12.990;2023-03-23T07:53:11;3.13;;;2.80;;
9661;SDS011;24982;52.344;12.990;2023-03-23T07:56:17;5.45;;;3.25;;
9661;SDS011;24982;52.344;12.990;2023-03-23T07:59:25;4.03;;;3.10;;
9661;SDS011;24982;52.344;12.990;2023-03-23T08:02:31;3.47;;;2.70;;
9661;SDS011;24982;52.344;12.990;2023-03-23T08:05:57;7.10;;;3.05;;
9661;SDS011;24982;52.344;12.990;2023-03-23T08:09:17;4.28;;;2.63;;
9661;SDS011;24982;52.344;12.990;2023-03-23T08:12:38;5.03;;;2.85;;
9661;SDS011;24982;52.344;12.990;2023-03-23T08:16:02;2.85;;;2.65;;
9661;SDS011;24982;52.344;12.990;2023-03-23T08:19:25;4.38;;;2.70;;
9661;SDS011;24982;52.344;12.990;2023-03-23T08:22:50;3.10;;;2.55;;
9661;SDS011;24982;52.344;12.990;2023-03-23T08:26:08;3.45;;;2.55;;
9661;SDS011;24982;52.344;12.990;2023-03-23T08:29:30;4.25;;;2.65;;
9661;SDS011;24982;52.344;12.990;2023-03-23T08:32:52;5.85;;;2.90;;
9661;SDS011;24982;52.344;12.990;2023-03-23T08:36:12;4.30;;;2.53;;
9661;SDS011;24982;52.344;12.990;2023-03-23T08:39:26;4.35;;;2.70;;
9661;SDS011;24982;52.344;12.990;2023-03-23T08:42:46;2.80;;;2.15;;
9661;SDS011;24982;52.344;12.990;2023-03-23T08:46:08;2.08;;;1.98;;
9661;SDS011;24982;52.344;12.990;2023-03-23T08:49:24;2.47;;;2.13;;
9661;SDS011;24982;52.344;12.990;2023-03-23T08:52:48;2.22;;;1.90;;
9661;SDS011;24982;52.344;12.990;2023-03-23T08:56:11;3.58;;;2.00;;
9661;SDS011;24982;52.344;12.990;2023-03-23T08:59:36;4.45;;;2.10;;
9661;SDS011;24982;52.344;12.990;2023-03-23T09:02:53;2.40;;;2.00;;
9661;SDS011;24982;52.344;12.990;2023-03-23T09:06:01;3.75;;;2.08;;
9661;SDS011;24982;52.344;12.990;2023-03-23T09:09:18;2.00;;;1.90;;
9661;SDS011;24982;52.344;12.990;2023-03-23T09:12:21;3.65;;;2.10;;
9661;SDS011;24982;52.344;12.990;2023-03-23T09:15:23;3.22;;;2.10;;
9661;SDS011;24982;52.344;12.990;2023-03-23T09:18:26;2.25;;;2.00;;
9661;SDS011;24982;52.344;12.990;2023-03-23T09:21:29;2.47;;;1.90;;
9661;SDS011;24982;52.344;12.990;2023-03-23T09:24:32;2.17;;;1.98;;
9661;SDS011;24982;52.344;12.990;2023-03-23T09:27:34;2.78;;;2.00;;
9661;SDS011;24982;52.344;12.990;2023-03-23T09:30:37;1.92;;;1.83;;
9661;SDS011;24982;52.344;12.990;2023-03-23T09:33:40;1.90;;;1.80;;
9661;SDS011;24982;52.344;12.990;2023-03-23T09:36:44;1.85;;;1.75;;
9661;SDS011;24982;52.344;12.990;2023-03-23T09:39:48;2.08;;;1.88;;
9661;SDS011;24982;52.344;12.990;2023-03-23T09:46:33;1.90;;;1.80;;
9661;SDS011;24982;52.344;12.990;2023-03-23T09:49:45;2.95;;;1.77;;
9661;SDS011;24982;52.344;12.990;2023-03-23T09:52:56;4.07;;;2.05;;
9661;SDS011;24982;52.344;12.990;2023-03-23T09:56:01;2.00;;;1.90;;
9661;SDS011;24982;52.344;12.990;2023-03-23T09:59:10;3.08;;;1.80;;
9661;SDS011;24982;52.344;12.990;2023-03-23T10:02:16;1.95;;;1.80;;
9661;SDS011;24982;52.344;12.990;2023-03-23T10:05:23;1.80;;;1.70;;
9661;SDS011;24982;52.344;12.990;2023-03-23T10:08:31;1.80;;;1.70;;
9661;SDS011;24982;52.344;12.990;2023-03-23T10:11:40;3.30;;;1.95;;
9661;SDS011;24982;52.344;12.990;2023-03-23T10:14:53;1.85;;;1.75;;
9661;SDS011;24982;52.344;12.990;2023-03-23T10:18:14;2.15;;;1.95;;
9661;SDS011;24982;52.344;12.990;2023-03-23T10:21:19;1.85;;;1.75;;
9661;SDS011;24982;52.344;12.990;2023-03-23T10:24:25;2.63;;;1.92;;
9661;SDS011;24982;52.344;12.990;2023-03-23T10:27:33;2.33;;;1.80;;
9661;SDS011;24982;52.344;12.990;2023-03-23T10:30:44;2.50;;;2.10;;
9661;SDS011;24982;52.344;12.990;2023-03-23T10:33:50;1.92;;;1.80;;
9661;SDS011;24982;52.344;12.990;2023-03-23T10:36:56;1.70;;;1.60;;
9661;SDS011;24982;52.344;12.990;2023-03-23T10:40:05;1.90;;;1.80;;
9661;SDS011;24982;52.344;12.990;2023-03-23T10:43:16;2.53;;;1.77;;
9661;SDS011;24982;52.344;12.990;2023-03-23T10:46:22;3.53;;;2.20;;
9661;SDS011;24982;52.344;12.990;2023-03-23T10:49:37;1.75;;;1.65;;
9661;SDS011;24982;52.344;12.990;2023-03-23T10:52:43;1.90;;;1.73;;
9661;SDS011;24982;52.344;12.990;2023-03-23T10:55:46;2.90;;;2.10;;
9661;SDS011;24982;52.344;12.990;2023-03-23T10:58:50;3.42;;;1.98;;
9661;SDS011;24982;52.344;12.990;2023-03-23T11:01:54;2.63;;;1.73;;
9661;SDS011;24982;52.344;12.990;2023-03-23T11:05:00;3.58;;;1.77;;
9661;SDS011;24982;52.344;12.990;2023-03-23T11:08:10;2.78;;;1.80;;
9661;SDS011;24982;52.344;12.990;2023-03-23T11:11:15;2.88;;;1.60;;
9661;SDS011;24982;52.344;12.990;2023-03-23T11:14:24;3.28;;;1.73;;
9661;SDS011;24982;52.344;12.990;2023-03-23T11:17:28;1.80;;;1.70;;
9661;SDS011;24982;52.344;12.990;2023-03-23T11:20:33;1.77;;;1.67;;
9661;SDS011;24982;52.344;12.990;2023-03-23T11:23:38;2.25;;;2.10;;
9661;SDS011;24982;52.344;12.990;2023-03-23T11:26:42;1.60;;;1.50;;
9661;SDS011;24982;52.344;12.990;2023-03-23T11:29:50;2.97;;;1.50;;
9661;SDS011;24982;52.344;12.990;2023-03-23T11:32:54;2.53;;;1.80;;
9661;SDS011;24982;52.344;12.990;2023-03-23T11:36:00;1.98;;;1.70;;
9661;SDS011;24982;52.344;12.990;2023-03-23T11:39:02;1.67;;;1.45;;
9661;SDS011;24982;52.344;12.990;2023-03-23T11:42:20;2.15;;;1.90;;
9661;SDS011;24982;52.344;12.990;2023-03-23T11:45:33;2.17;;;1.73;;
9661;SDS011;24982;52.344;12.990;2023-03-23T11:48:38;3.00;;;2.70;;
9661;SDS011;24982;52.344;12.990;2023-03-23T11:51:45;1.88;;;1.77;;
9661;SDS011;24982;52.344;12.990;2023-03-23T11:54:50;1.70;;;1.60;;
9661;SDS011;24982;52.344;12.990;2023-03-23T11:58:00;2.00;;;1.90;;
9661;SDS011;24982;52.344;12.990;2023-03-23T12:01:10;1.90;;;1.83;;
9661;SDS011;24982;52.344;12.990;2023-03-23T12:04:31;4.22;;;1.58;;
9661;SDS011;24982;52.344;12.990;2023-03-23T12:07:53;2.80;;;1.80;;
9661;SDS011;24982;52.344;12.990;2023-03-23T12:11:06;1.90;;;1.80;;
9661;SDS011;24982;52.344;12.990;2023-03-23T12:14:16;1.75;;;1.60;;
9661;SDS011;24982;52.344;12.990;2023-03-23T12:17:28;1.80;;;1.60;;
9661;SDS011;24982;52.344;12.990;2023-03-23T12:20:41;2.00;;;1.67;;
9661;SDS011;24982;52.344;12.990;2023-03-23T12:23:53;1.75;;;1.65;;
9661;SDS011;24982;52.344;12.990;2023-03-23T12:27:01;2.63;;;1.70;;
9661;SDS011;24982;52.344;12.990;2023-03-23T12:30:14;1.98;;;1.83;;
9661;SDS011;24982;52.344;12.990;2023-03-23T12:33:26;1.90;;;1.80;;
9661;SDS011;24982;52.344;12.990;2023-03-23T12:36:43;1.98;;;1.80;;
9661;SDS011;24982;52.344;12.990;2023-03-23T12:40:01;1.80;;;1.70;;
9661;SDS011;24982;52.344;12.990;2023-03-23T12:43:24;2.60;;;1.70;;
9661;SDS011;24982;52.344;12.990;2023-03-23T12:50:03;1.90;;;1.80;;
9661;SDS011;24982;52.344;12.990;2023-03-23T12:53:14;2.72;;;1.73;;
9661;SDS011;24982;52.344;12.990;2023-03-23T12:56:20;2.05;;;1.90;;
9661;SDS011;24982;52.344;12.990;2023-03-23T12:59:28;2.90;;;1.70;;
9661;SDS011;24982;52.344;12.990;2023-03-23T13:02:32;2.30;;;1.80;;
9661;SDS011;24982;52.344;12.990;2023-03-23T13:05:42;1.70;;;1.60;;
9661;SDS011;24982;52.344;12.990;2023-03-23T13:08:56;1.67;;;1.58;;
9661;SDS011;24982;52.344;12.990;2023-03-23T13:11:59;3.45;;;1.90;;
9661;SDS011;24982;52.344;12.990;2023-03-23T13:15:05;1.63;;;1.30;;
9661;SDS011;24982;52.344;12.990;2023-03-23T13:18:11;2.97;;;1.60;;
9661;SDS011;24982;52.344;12.990;2023-03-23T13:21:30;2.80;;;1.40;;
9661;SDS011;24982;52.344;12.990;2023-03-23T13:24:34;2.80;;;1.58;;
9661;SDS011;24982;52.344;12.990;2023-03-23T13:27:39;1.65;;;1.52;;
9661;SDS011;24982;52.344;12.990;2023-03-23T13:30:52;3.28;;;1.80;;
9661;SDS011;24982;52.344;12.990;2023-03-23T13:33:59;6.20;;;1.90;;
9661;SDS011;24982;52.344;12.990;2023-03-23T13:37:05;2.97;;;1.60;;
9661;SDS011;24982;52.344;12.990;2023-03-23T13:40:18;3.28;;;2.70;;
9661;SDS011;24982;52.344;12.990;2023-03-23T13:43:27;2.97;;;1.77;;
9661;SDS011;24982;52.344;12.990;2023-03-23T13:46:31;1.67;;;1.58;;
9661;SDS011;24982;52.344;12.990;2023-03-23T13:49:44;2.78;;;1.80;;
9661;SDS011;24982;52.344;12.990;2023-03-23T13:52:52;3.25;;;1.60;;
9661;SDS011;24982;52.344;12.990;2023-03-23T13:56:06;2.10;;;1.50;;
9661;SDS011;24982;52.344;12.990;2023-03-23T13:59:27;3.72;;;1.58;;
9661;SDS011;24982;52.344;12.990;2023-03-23T14:02:36;1.98;;;1.70;;
9661;SDS011;24982;52.344;12.990;2023-03-23T14:05:43;2.03;;;1.85;;
9661;SDS011;24982;52.344;12.990;2023-03-23T14:08:49;2.15;;;1.75;;
9661;SDS011;24982;52.344;12.990;2023-03-23T14:11:55;3.90;;;2.08;;
9661;SDS011;24982;52.344;12.990;2023-03-23T14:14:59;4.32;;;1.90;;
9661;SDS011;24982;52.344;12.990;2023-03-23T14:18:04;4.53;;;1.80;;
9661;SDS011;24982;52.344;12.990;2023-03-23T14:21:13;2.63;;;1.70;;
9661;SDS011;24982;52.344;12.990;2023-03-23T14:24:19;3.00;;;1.65;;
9661;SDS011;24982;52.344;12.990;2023-03-23T14:27:24;3.45;;;1.80;;
9661;SDS011;24982;52.344;12.990;2023-03-23T14:30:33;1.65;;;1.60;;
9661;SDS011;24982;52.344;12.990;2023-03-23T14:33:37;3.10;;;1.50;;
9661;SDS011;24982;52.344;12.990;2023-03-23T14:36:41;2.15;;;1.35;;
9661;SDS011;24982;52.344;12.990;2023-03-23T14:39:46;4.57;;;1.77;;
9661;SDS011;24982;52.344;12.990;2023-03-23T14:42:50;1.98;;;1.30;;
9661;SDS011;24982;52.344;12.990;2023-03-23T14:45:55;2.83;;;1.60;;
9661;SDS011;24982;52.344;12.990;2023-03-23T14:49:00;2.95;;;1.77;;
9661;SDS011;24982;52.344;12.990;2023-03-23T14:52:08;2.83;;;1.70;;
9661;SDS011;24982;52.344;12.990;2023-03-23T14:55:14;2.38;;;1.58;;
9661;SDS011;24982;52.344;12.990;2023-03-23T14:58:19;1.45;;;1.35;;
9661;SDS011;24982;52.344;12.990;2023-03-23T15:01:23;1.55;;;1.45;;
9661;SDS011;24982;52.344;12.990;2023-03-23T15:04:27;1.83;;;1.55;;
9661;SDS011;24982;52.344;12.990;2023-03-23T15:07:30;1.63;;;1.50;;
9661;SDS011;24982;52.344;12.990;2023-03-23T15:10:36;1.52;;;1.42;;
9661;SDS011;24982;52.344;12.990;2023-03-23T15:13:42;3.45;;;1.48;;
9661;SDS011;24982;52.344;12.990;2023-03-23T15:16:46;1.83;;;1.50;;
9661;SDS011;24982;52.344;12.990;2023-03-23T15:19:49;3.17;;;1.40;;
9661;SDS011;24982;52.344;12.990;2023-03-23T15:22:52;2.90;;;1.45;;
9661;SDS011;24982;52.344;12.990;2023-03-23T15:25:56;2.75;;;1.20;;
9661;SDS011;24982;52.344;12.990;2023-03-23T15:29:10;1.17;;;1.00;;
9661;SDS011;24982;52.344;12.990;2023-03-23T15:32:20;3.70;;;1.50;;
9661;SDS011;24982;52.344;12.990;2023-03-23T15:35:26;1.73;;;1.30;;
9661;SDS011;24982;52.344;12.990;2023-03-23T15:38:34;2.47;;;1.40;;
9661;SDS011;24982;52.344;12.990;2023-03-23T15:41:45;1.98;;;1.40;;
9661;SDS011;24982;52.344;12.990;2023-03-23T15:44:54;2.80;;;1.58;;
9661;SDS011;24982;52.344;12.990;2023-03-23T15:48:04;1.67;;;1.10;;
9661;SDS011;24982;52.344;12.990;2023-03-23T15:51:12;1.73;;;1.60;;
9661;SDS011;24982;52.344;12.990;2023-03-23T15:54:15;2.88;;;1.48;;
9661;SDS011;24982;52.344;12.990;2023-03-23T15:57:19;1.75;;;1.40;;
9661;SDS011;24982;52.344;12.990;2023-03-23T16:00:21;5.00;;;1.60;;
9661;SDS011;24982;52.344;12.990;2023-03-23T16:03:26;3.05;;;1.88;;
9661;SDS011;24982;52.344;12.990;2023-03-23T16:06:31;4.75;;;1.63;;
9661;SDS011;24982;52.344;12.990;2023-03-23T16:09:34;3.83;;;1.40;;
9661;SDS011;24982;52.344;12.990;2023-03-23T16:12:37;3.20;;;1.65;;
9661;SDS011;24982;52.344;12.990;2023-03-23T16:15:39;3.35;;;1.67;;
9661;SDS011;24982;52.344;12.990;2023-03-23T16:18:41;3.10;;;1.50;;
9661;SDS011;24982;52.344;12.990;2023-03-23T16:21:44;1.85;;;1.42;;
9661;SDS011;24982;52.344;12.990;2023-03-23T16:24:46;3.30;;;1.40;;
9661;SDS011;24982;52.344;12.990;2023-03-23T16:27:49;1.73;;;1.40;;
9661;SDS011;24982;52.344;12.990;2023-03-23T16:30:53;3.28;;;1.20;;
9661;SDS011;24982;52.344;12.990;2023-03-23T16:33:55;1.73;;;1.52;;
9661;SDS011;24982;52.344;12.990;2023-03-23T16:36:57;4.95;;;1.52;;
9661;SDS011;24982;52.344;12.990;2023-03-23T16:40:00;2.78;;;1.98;;
9661;SDS011;24982;52.344;12.990;2023-03-23T16:43:04;4.90;;;1.70;;
9661;SDS011;24982;52.344;12.990;2023-03-23T16:46:06;2.90;;;1.30;;
9661;SDS011;24982;52.344;12.990;2023-03-23T16:49:10;2.35;;;1.30;;
9661;SDS011;24982;52.344;12.990;2023-03-23T16:52:12;2.47;;;1.38;;
9661;SDS011;24982;52.344;12.990;2023-03-23T16:55:15;2.70;;;1.40;;
9661;SDS011;24982;52.344;12.990;2023-03-23T16:58:18;2.83;;;1.40;;
9661;SDS011;24982;52.344;12.990;2023-03-23T17:01:21;2.97;;;1.58;;
9661;SDS011;24982;52.344;12.990;2023-03-23T17:04:23;1.80;;;1.63;;
9661;SDS011;24982;52.344;12.990;2023-03-23T17:07:25;4.03;;;1.67;;
9661;SDS011;24982;52.344;12.990;2023-03-23T17:10:28;3.72;;;2.00;;
9661;SDS011;24982;52.344;12.990;2023-03-23T17:13:31;2.95;;;1.67;;
9661;SDS011;24982;52.344;12.990;2023-03-23T17:16:34;3.13;;;1.83;;
9661;SDS011;24982;52.344;12.990;2023-03-23T17:19:36;1.88;;;1.60;;
9661;SDS011;24982;52.344;12.990;2023-03-23T17:22:39;1.85;;;1.60;;
9661;SDS011;24982;52.344;12.990;2023-03-23T17:25:42;2.15;;;2.05;;
9661;SDS011;24982;52.344;12.990;2023-03-23T17:28:46;2.83;;;2.28;;
9661;SDS011;24982;52.344;12.990;2023-03-23T17:31:49;3.50;;;2.17;;
9661;SDS011;24982;52.344;12.990;2023-03-23T17:34:51;2.78;;;1.83;;
9661;SDS011;24982;52.344;12.990;2023-03-23T17:37:53;2.08;;;1.88;;
9661;SDS011;24982;52.344;12.990;2023-03-23T17:40:56;2.63;;;1.70;;
9661;SDS011;24982;52.344;12.990;2023-03-23T17:44:00;3.85;;;1.80;;
9661;SDS011;24982;52.344;12.990;2023-03-23T17:47:02;5.00;;;2.15;;
9661;SDS011;24982;52.344;12.990;2023-03-23T17:50:05;1.75;;;1.65;;
9661;SDS011;24982;52.344;12.990;2023-03-23T17:53:08;4.07;;;2.20;;
9661;SDS011;24982;52.344;12.990;2023-03-23T17:56:10;5.80;;;3.35;;
9661;SDS011;24982;52.344;12.990;2023-03-23T17:59:14;5.95;;;3.38;;
9661;SDS011;24982;52.344;12.990;2023-03-23T18:02:16;4.57;;;2.28;;
9661;SDS011;24982;52.344;12.990;2023-03-23T18:05:19;4.55;;;2.08;;
9661;SDS011;24982;52.344;12.990;2023-03-23T18:08:21;4.82;;;2.15;;
9661;SDS011;24982;52.344;12.990;2023-03-23T18:11:25;2.72;;;2.03;;
9661;SDS011;24982;52.344;12.990;2023-03-23T18:14:29;6.00;;;2.50;;
9661;SDS011;24982;52.344;12.990;2023-03-23T18:17:31;3.20;;;2.65;;
9661;SDS011;24982;52.344;12.990;2023-03-23T18:20:33;3.40;;;2.42;;
9661;SDS011;24982;52.344;12.990;2023-03-23T18:23:36;5.10;;;2.80;;
9661;SDS011;24982;52.344;12.990;2023-03-23T18:26:39;4.55;;;2.72;;
9661;SDS011;24982;52.344;12.990;2023-03-23T18:29:43;5.20;;;2.90;;
9661;SDS011;24982;52.344;12.990;2023-03-23T18:32:46;4.68;;;2.70;;
9661;SDS011;24982;52.344;12.990;2023-03-23T18:35:54;3.67;;;2.47;;
9661;SDS011;24982;52.344;12.990;2023-03-23T18:38:57;4.45;;;2.60;;
9661;SDS011;24982;52.344;12.990;2023-03-23T18:42:00;4.65;;;2.85;;
9661;SDS011;24982;52.344;12.990;2023-03-23T18:45:04;8.27;;;2.80;;
9661;SDS011;24982;52.344;12.990;2023-03-23T18:48:06;7.32;;;3.15;;
9661;SDS011;24982;52.344;12.990;2023-03-23T18:51:09;5.15;;;3.03;;
9661;SDS011;24982;52.344;12.990;2023-03-23T18:54:11;8.48;;;3.20;;
9661;SDS011;24982;52.344;12.990;2023-03-23T18:57:14;5.82;;;3.30;;
9661;SDS011;24982;52.344;12.990;2023-03-23T19:00:18;4.53;;;3.47;;